sensor_id;sensor_type;location;lat;lon;timestamp;P1;durP1;ratioP1;P2;durP2;ratioP2
59786;SDS011;45672;51.612;5.536;2023-02-15T00:48:39;46.20;;;24.77;;
59786;SDS011;45672;51.612;5.536;2023-02-15T00:51:04;44.33;;;25.02;;
59786;SDS011;45672;51.612;5.536;2023-02-15T00:53:30;44.03;;;24.48;;
59786;SDS011;45672;51.612;5.536;2023-02-15T00:55:56;45.42;;;24.13;;
59786;SDS011;45672;51.612;5.536;2023-02-15T00:58:22;44.92;;;25.13;;
59786;SDS011;45672;51.612;5.536;2023-02-15T01:00:48;45.03;;;25.02;;
59786;SDS011;45672;51.612;5.536;2023-02-15T01:03:15;43.13;;;25.23;;
59786;SDS011;45672;51.612;5.536;2023-02-15T01:05:41;47.42;;;26.10;;
59786;SDS011;45672;51.612;5.536;2023-02-15T01:08:07;44.30;;;25.45;;
59786;SDS011;45672;51.612;5.536;2023-02-15T01:10:33;41.60;;;24.80;;
59786;SDS011;45672;51.612;5.536;2023-02-15T01:13:00;42.47;;;25.27;;
59786;SDS011;45672;51.612;5.536;2023-02-15T01:15:25;43.17;;;25.05;;
59786;SDS011;45672;51.612;5.536;2023-02-15T01:17:50;43.70;;;24.23;;
59786;SDS011;45672;51.612;5.536;2023-02-15T01:20:18;43.20;;;23.90;;
59786;SDS011;45672;51.612;5.536;2023-02-15T01:22:48;45.67;;;25.60;;
59786;SDS011;45672;51.612;5.536;2023-02-15T01:25:15;50.42;;;25.17;;
59786;SDS011;45672;51.612;5.536;2023-02-15T01:27:41;46.38;;;24.58;;
59786;SDS011;45672;51.612;5.536;2023-02-15T01:30:07;46.50;;;24.35;;
59786;SDS011;45672;51.612;5.536;2023-02-15T01:32:33;41.53;;;24.48;;
59786;SDS011;45672;51.612;5.536;2023-02-15T01:34:59;41.10;;;23.80;;
59786;SDS011;45672;51.612;5.536;2023-02-15T01:37:24;41.92;;;23.60;;
59786;SDS011;45672;51.612;5.536;2023-02-15T01:39:49;42.55;;;23.67;;
59786;SDS011;45672;51.612;5.536;2023-02-15T01:42:20;41.30;;;23.33;;
59786;SDS011;45672;51.612;5.536;2023-02-15T01:53:22;38.42;;;22.35;;
59786;SDS011;45672;51.612;5.536;2023-02-15T01:55:55;42.28;;;24.15;;
59786;SDS011;45672;51.612;5.536;2023-02-15T01:58:24;41.38;;;23.33;;
59786;SDS011;45672;51.612;5.536;2023-02-15T02:00:52;45.30;;;24.27;;
59786;SDS011;45672;51.612;5.536;2023-02-15T02:03:20;47.05;;;23.75;;
59786;SDS011;45672;51.612;5.536;2023-02-15T02:05:52;49.05;;;23.15;;
59786;SDS011;45672;51.612;5.536;2023-02-15T02:08:18;48.20;;;24.30;;
59786;SDS011;45672;51.612;5.536;2023-02-15T02:10:43;41.38;;;23.50;;
59786;SDS011;45672;51.612;5.536;2023-02-15T02:13:08;43.00;;;23.25;;
59786;SDS011;45672;51.612;5.536;2023-02-15T02:15:39;44.53;;;23.55;;
59786;SDS011;45672;51.612;5.536;2023-02-15T02:31:55;42.53;;;23.38;;
59786;SDS011;45672;51.612;5.536;2023-02-15T02:34:57;44.17;;;22.27;;
59786;SDS011;45672;51.612;5.536;2023-02-15T02:40:02;42.35;;;22.50;;
59786;SDS011;45672;51.612;5.536;2023-02-15T02:45:39;41.45;;;22.45;;
59786;SDS011;45672;51.612;5.536;2023-02-15T02:48:12;37.20;;;21.23;;
59786;SDS011;45672;51.612;5.536;2023-02-15T02:50:41;39.53;;;22.73;;
59786;SDS011;45672;51.612;5.536;2023-02-15T02:53:06;41.97;;;22.13;;
59786;SDS011;45672;51.612;5.536;2023-02-15T02:56:18;40.08;;;23.05;;
59786;SDS011;45672;51.612;5.536;2023-02-15T02:58:42;41.05;;;22.10;;
59786;SDS011;45672;51.612;5.536;2023-02-15T03:01:14;42.13;;;22.23;;
59786;SDS011;45672;51.612;5.536;2023-02-15T03:06:17;45.63;;;21.45;;
59786;SDS011;45672;51.612;5.536;2023-02-15T03:08:48;41.05;;;21.55;;
59786;SDS011;45672;51.612;5.536;2023-02-15T03:11:18;43.17;;;22.45;;
59786;SDS011;45672;51.612;5.536;2023-02-15T03:13:44;38.08;;;21.88;;
59786;SDS011;45672;51.612;5.536;2023-02-15T03:16:12;39.50;;;21.70;;
59786;SDS011;45672;51.612;5.536;2023-02-15T03:19:04;42.30;;;23.00;;
59786;SDS011;45672;51.612;5.536;2023-02-15T03:24:09;37.83;;;21.73;;
59786;SDS011;45672;51.612;5.536;2023-02-15T03:26:42;43.60;;;22.50;;
59786;SDS011;45672;51.612;5.536;2023-02-15T03:29:10;37.40;;;22.17;;
59786;SDS011;45672;51.612;5.536;2023-02-15T03:31:38;41.13;;;21.98;;
59786;SDS011;45672;51.612;5.536;2023-02-15T03:34:09;41.83;;;22.67;;
59786;SDS011;45672;51.612;5.536;2023-02-15T03:36:39;41.08;;;21.88;;
59786;SDS011;45672;51.612;5.536;2023-02-15T03:39:30;36.38;;;21.27;;
59786;SDS011;45672;51.612;5.536;2023-02-15T03:42:10;38.60;;;21.98;;
59786;SDS011;45672;51.612;5.536;2023-02-15T03:44:41;43.47;;;21.85;;
59786;SDS011;45672;51.612;5.536;2023-02-15T03:47:16;38.00;;;21.48;;
59786;SDS011;45672;51.612;5.536;2023-02-15T03:49:51;36.58;;;21.02;;
59786;SDS011;45672;51.612;5.536;2023-02-15T03:52:21;40.17;;;21.05;;
59786;SDS011;45672;51.612;5.536;2023-02-15T03:54:49;42.17;;;21.10;;
59786;SDS011;45672;51.612;5.536;2023-02-15T03:57:19;39.83;;;21.45;;
59786;SDS011;45672;51.612;5.536;2023-02-15T04:00:12;38.67;;;20.70;;
59786;SDS011;45672;51.612;5.536;2023-02-15T04:03:04;38.03;;;20.85;;
59786;SDS011;45672;51.612;5.536;2023-02-15T04:05:35;35.08;;;20.50;;
59786;SDS011;45672;51.612;5.536;2023-02-15T04:08:00;38.45;;;21.52;;
59786;SDS011;45672;51.612;5.536;2023-02-15T04:10:26;43.67;;;21.02;;
59786;SDS011;45672;51.612;5.536;2023-02-15T04:13:10;33.28;;;20.00;;
59786;SDS011;45672;51.612;5.536;2023-02-15T04:15:35;40.60;;;20.88;;
59786;SDS011;45672;51.612;5.536;2023-02-15T04:18:19;41.55;;;20.88;;
59786;SDS011;45672;51.612;5.536;2023-02-15T04:20:44;38.50;;;20.58;;
59786;SDS011;45672;51.612;5.536;2023-02-15T04:23:29;36.05;;;20.52;;
59786;SDS011;45672;51.612;5.536;2023-02-15T04:26:13;41.15;;;21.15;;
59786;SDS011;45672;51.612;5.536;2023-02-15T04:28:39;39.47;;;21.55;;
59786;SDS011;45672;51.612;5.536;2023-02-15T04:31:04;37.65;;;21.92;;
59786;SDS011;45672;51.612;5.536;2023-02-15T04:33:29;38.80;;;21.70;;
59786;SDS011;45672;51.612;5.536;2023-02-15T04:35:55;40.60;;;21.50;;
59786;SDS011;45672;51.612;5.536;2023-02-15T04:38:21;36.67;;;21.15;;
59786;SDS011;45672;51.612;5.536;2023-02-15T04:40:50;40.10;;;20.90;;
59786;SDS011;45672;51.612;5.536;2023-02-15T04:43:17;42.58;;;21.10;;
59786;SDS011;45672;51.612;5.536;2023-02-15T04:45:48;38.38;;;20.70;;
59786;SDS011;45672;51.612;5.536;2023-02-15T04:48:15;42.33;;;22.02;;
59786;SDS011;45672;51.612;5.536;2023-02-15T04:50:41;36.55;;;20.90;;
59786;SDS011;45672;51.612;5.536;2023-02-15T04:53:07;38.40;;;20.85;;
59786;SDS011;45672;51.612;5.536;2023-02-15T04:55:32;39.25;;;20.73;;
59786;SDS011;45672;51.612;5.536;2023-02-15T04:57:57;34.05;;;20.60;;
59786;SDS011;45672;51.612;5.536;2023-02-15T05:00:23;40.00;;;21.17;;
59786;SDS011;45672;51.612;5.536;2023-02-15T05:02:48;35.00;;;20.65;;
59786;SDS011;45672;51.612;5.536;2023-02-15T05:05:13;40.55;;;21.48;;
59786;SDS011;45672;51.612;5.536;2023-02-15T05:07:40;43.58;;;21.65;;
59786;SDS011;45672;51.612;5.536;2023-02-15T05:10:05;48.45;;;24.30;;
59786;SDS011;45672;51.612;5.536;2023-02-15T05:12:31;39.67;;;21.60;;
59786;SDS011;45672;51.612;5.536;2023-02-15T05:14:56;40.67;;;21.85;;
59786;SDS011;45672;51.612;5.536;2023-02-15T05:17:22;41.38;;;20.63;;
59786;SDS011;45672;51.612;5.536;2023-02-15T05:19:47;40.78;;;21.15;;
59786;SDS011;45672;51.612;5.536;2023-02-15T05:22:12;39.22;;;21.65;;
59786;SDS011;45672;51.612;5.536;2023-02-15T05:24:38;36.13;;;21.35;;
59786;SDS011;45672;51.612;5.536;2023-02-15T05:27:21;36.22;;;21.92;;
59786;SDS011;45672;51.612;5.536;2023-02-15T05:30:06;36.47;;;21.08;;
59786;SDS011;45672;51.612;5.536;2023-02-15T05:32:36;38.38;;;21.00;;
59786;SDS011;45672;51.612;5.536;2023-02-15T05:35:02;40.13;;;21.98;;
59786;SDS011;45672;51.612;5.536;2023-02-15T05:37:27;40.25;;;20.98;;
59786;SDS011;45672;51.612;5.536;2023-02-15T05:39:53;41.72;;;22.50;;
59786;SDS011;45672;51.612;5.536;2023-02-15T05:42:18;45.97;;;22.40;;
59786;SDS011;45672;51.612;5.536;2023-02-15T05:44:43;42.20;;;21.90;;
59786;SDS011;45672;51.612;5.536;2023-02-15T05:47:08;42.60;;;22.17;;
59786;SDS011;45672;51.612;5.536;2023-02-15T05:49:34;42.78;;;21.75;;
59786;SDS011;45672;51.612;5.536;2023-02-15T05:51:59;45.53;;;22.33;;
59786;SDS011;45672;51.612;5.536;2023-02-15T05:54:24;47.50;;;21.90;;
59786;SDS011;45672;51.612;5.536;2023-02-15T05:56:50;41.95;;;21.85;;
59786;SDS011;45672;51.612;5.536;2023-02-15T05:59:15;41.85;;;22.75;;
59786;SDS011;45672;51.612;5.536;2023-02-15T06:01:40;45.33;;;21.13;;
59786;SDS011;45672;51.612;5.536;2023-02-15T06:04:06;37.05;;;21.83;;
59786;SDS011;45672;51.612;5.536;2023-02-15T06:06:31;39.47;;;22.45;;
59786;SDS011;45672;51.612;5.536;2023-02-15T06:08:56;39.80;;;21.40;;
59786;SDS011;45672;51.612;5.536;2023-02-15T06:11:21;46.03;;;22.55;;
59786;SDS011;45672;51.612;5.536;2023-02-15T06:13:47;47.35;;;23.13;;
59786;SDS011;45672;51.612;5.536;2023-02-15T06:16:12;43.08;;;22.55;;
59786;SDS011;45672;51.612;5.536;2023-02-15T06:18:37;39.53;;;21.35;;
59786;SDS011;45672;51.612;5.536;2023-02-15T06:21:03;43.97;;;22.10;;
59786;SDS011;45672;51.612;5.536;2023-02-15T06:23:28;47.63;;;23.25;;
59786;SDS011;45672;51.612;5.536;2023-02-15T06:25:53;44.88;;;21.92;;
59786;SDS011;45672;51.612;5.536;2023-02-15T06:28:19;39.55;;;22.15;;
59786;SDS011;45672;51.612;5.536;2023-02-15T06:30:44;42.80;;;22.77;;
59786;SDS011;45672;51.612;5.536;2023-02-15T06:33:09;40.95;;;22.48;;
59786;SDS011;45672;51.612;5.536;2023-02-15T06:35:34;41.75;;;22.08;;
59786;SDS011;45672;51.612;5.536;2023-02-15T06:38:00;39.50;;;22.48;;
59786;SDS011;45672;51.612;5.536;2023-02-15T06:40:25;44.40;;;23.38;;
59786;SDS011;45672;51.612;5.536;2023-02-15T06:42:50;42.72;;;22.30;;
59786;SDS011;45672;51.612;5.536;2023-02-15T06:45:16;46.42;;;23.00;;
59786;SDS011;45672;51.612;5.536;2023-02-15T06:47:41;42.70;;;22.52;;
59786;SDS011;45672;51.612;5.536;2023-02-15T06:50:06;41.97;;;23.00;;
59786;SDS011;45672;51.612;5.536;2023-02-15T06:52:32;49.03;;;25.10;;
59786;SDS011;45672;51.612;5.536;2023-02-15T06:55:01;48.10;;;26.73;;
59786;SDS011;45672;51.612;5.536;2023-02-15T06:57:27;37.88;;;18.92;;
59786;SDS011;45672;51.612;5.536;2023-02-15T06:59:52;40.30;;;19.13;;
59786;SDS011;45672;51.612;5.536;2023-02-15T07:02:17;39.05;;;20.13;;
59786;SDS011;45672;51.612;5.536;2023-02-15T07:04:43;30.70;;;17.77;;
59786;SDS011;45672;51.612;5.536;2023-02-15T07:07:09;44.63;;;21.50;;
59786;SDS011;45672;51.612;5.536;2023-02-15T07:09:36;42.95;;;22.90;;
59786;SDS011;45672;51.612;5.536;2023-02-15T07:12:01;46.55;;;22.17;;
59786;SDS011;45672;51.612;5.536;2023-02-15T07:14:46;48.78;;;22.90;;
59786;SDS011;45672;51.612;5.536;2023-02-15T07:17:11;46.85;;;24.05;;
59786;SDS011;45672;51.612;5.536;2023-02-15T07:19:36;48.03;;;24.30;;
59786;SDS011;45672;51.612;5.536;2023-02-15T07:22:02;47.88;;;23.60;;
59786;SDS011;45672;51.612;5.536;2023-02-15T07:24:28;44.17;;;24.52;;
59786;SDS011;45672;51.612;5.536;2023-02-15T07:26:54;42.95;;;23.67;;
59786;SDS011;45672;51.612;5.536;2023-02-15T07:29:19;50.00;;;24.38;;
59786;SDS011;45672;51.612;5.536;2023-02-15T07:31:44;44.90;;;23.63;;
59786;SDS011;45672;51.612;5.536;2023-02-15T07:34:10;49.20;;;25.08;;
59786;SDS011;45672;51.612;5.536;2023-02-15T07:36:35;46.50;;;24.73;;
59786;SDS011;45672;51.612;5.536;2023-02-15T07:39:01;46.67;;;24.92;;
59786;SDS011;45672;51.612;5.536;2023-02-15T07:41:26;51.35;;;24.30;;
59786;SDS011;45672;51.612;5.536;2023-02-15T07:43:51;51.40;;;25.40;;
59786;SDS011;45672;51.612;5.536;2023-02-15T07:46:17;48.50;;;25.08;;
59786;SDS011;45672;51.612;5.536;2023-02-15T07:48:44;45.70;;;24.67;;
59786;SDS011;45672;51.612;5.536;2023-02-15T07:51:10;45.83;;;25.63;;
59786;SDS011;45672;51.612;5.536;2023-02-15T07:53:37;48.55;;;25.23;;
59786;SDS011;45672;51.612;5.536;2023-02-15T07:56:04;48.13;;;25.02;;
59786;SDS011;45672;51.612;5.536;2023-02-15T07:58:35;56.28;;;26.35;;
59786;SDS011;45672;51.612;5.536;2023-02-15T08:01:16;47.13;;;25.20;;
59786;SDS011;45672;51.612;5.536;2023-02-15T08:03:43;50.35;;;24.13;;
59786;SDS011;45672;51.612;5.536;2023-02-15T08:06:08;47.58;;;24.60;;
59786;SDS011;45672;51.612;5.536;2023-02-15T08:08:36;50.67;;;27.08;;
59786;SDS011;45672;51.612;5.536;2023-02-15T08:11:13;47.20;;;25.77;;
59786;SDS011;45672;51.612;5.536;2023-02-15T08:13:55;50.03;;;26.38;;
59786;SDS011;45672;51.612;5.536;2023-02-15T08:18:56;48.20;;;24.25;;
59786;SDS011;45672;51.612;5.536;2023-02-15T08:21:22;53.30;;;25.67;;
59786;SDS011;45672;51.612;5.536;2023-02-15T08:23:49;47.28;;;24.67;;
59786;SDS011;45672;51.612;5.536;2023-02-15T08:26:15;46.13;;;25.00;;
59786;SDS011;45672;51.612;5.536;2023-02-15T08:28:41;44.20;;;24.85;;
59786;SDS011;45672;51.612;5.536;2023-02-15T08:31:07;50.05;;;24.48;;
59786;SDS011;45672;51.612;5.536;2023-02-15T08:33:35;44.53;;;24.58;;
59786;SDS011;45672;51.612;5.536;2023-02-15T08:36:05;43.83;;;26.38;;
59786;SDS011;45672;51.612;5.536;2023-02-15T08:38:31;45.33;;;25.05;;
59786;SDS011;45672;51.612;5.536;2023-02-15T08:40:57;43.13;;;24.23;;
59786;SDS011;45672;51.612;5.536;2023-02-15T08:43:23;43.08;;;25.25;;
59786;SDS011;45672;51.612;5.536;2023-02-15T08:45:48;47.33;;;25.23;;
59786;SDS011;45672;51.612;5.536;2023-02-15T08:48:13;43.13;;;25.00;;
59786;SDS011;45672;51.612;5.536;2023-02-15T08:50:38;40.75;;;25.25;;
59786;SDS011;45672;51.612;5.536;2023-02-15T08:53:04;42.90;;;25.80;;
59786;SDS011;45672;51.612;5.536;2023-02-15T08:55:29;42.45;;;25.38;;
59786;SDS011;45672;51.612;5.536;2023-02-15T08:57:55;43.08;;;24.88;;
59786;SDS011;45672;51.612;5.536;2023-02-15T09:00:20;42.95;;;24.45;;
59786;SDS011;45672;51.612;5.536;2023-02-15T09:02:50;42.65;;;24.95;;
59786;SDS011;45672;51.612;5.536;2023-02-15T09:05:15;42.08;;;24.73;;
59786;SDS011;45672;51.612;5.536;2023-02-15T09:07:41;43.78;;;25.55;;
59786;SDS011;45672;51.612;5.536;2023-02-15T09:10:06;44.30;;;25.55;;
59786;SDS011;45672;51.612;5.536;2023-02-15T09:12:31;42.85;;;25.20;;
59786;SDS011;45672;51.612;5.536;2023-02-15T09:14:57;40.08;;;25.33;;
59786;SDS011;45672;51.612;5.536;2023-02-15T09:17:22;44.03;;;24.52;;
59786;SDS011;45672;51.612;5.536;2023-02-15T09:19:48;39.55;;;24.27;;
59786;SDS011;45672;51.612;5.536;2023-02-15T09:22:13;42.60;;;24.45;;
59786;SDS011;45672;51.612;5.536;2023-02-15T09:24:38;38.70;;;23.60;;
59786;SDS011;45672;51.612;5.536;2023-02-15T09:27:04;38.65;;;23.95;;
59786;SDS011;45672;51.612;5.536;2023-02-15T09:29:29;36.00;;;23.02;;
59786;SDS011;45672;51.612;5.536;2023-02-15T09:31:55;39.30;;;24.15;;
59786;SDS011;45672;51.612;5.536;2023-02-15T09:34:21;40.95;;;23.42;;
59786;SDS011;45672;51.612;5.536;2023-02-15T09:36:47;33.35;;;22.83;;
59786;SDS011;45672;51.612;5.536;2023-02-15T09:39:26;36.08;;;22.98;;
59786;SDS011;45672;51.612;5.536;2023-02-15T09:44:39;36.47;;;23.50;;
59786;SDS011;45672;51.612;5.536;2023-02-15T09:47:13;33.67;;;22.35;;
59786;SDS011;45672;51.612;5.536;2023-02-15T09:50:22;33.38;;;23.20;;
59786;SDS011;45672;51.612;5.536;2023-02-15T09:53:06;35.15;;;23.63;;
59786;SDS011;45672;51.612;5.536;2023-02-15T09:55:57;35.53;;;23.05;;
59786;SDS011;45672;51.612;5.536;2023-02-15T09:58:47;33.78;;;22.25;;
59786;SDS011;45672;51.612;5.536;2023-02-15T10:09:51;35.97;;;25.50;;
59786;SDS011;45672;51.612;5.536;2023-02-15T10:20:54;40.25;;;25.85;;
59786;SDS011;45672;51.612;5.536;2023-02-15T10:23:32;43.67;;;26.77;;
59786;SDS011;45672;51.612;5.536;2023-02-15T10:26:18;43.92;;;26.30;;
59786;SDS011;45672;51.612;5.536;2023-02-15T10:32:19;44.33;;;25.83;;
59786;SDS011;45672;51.612;5.536;2023-02-15T10:34:59;46.10;;;28.92;;
59786;SDS011;45672;51.612;5.536;2023-02-15T10:40:18;42.67;;;26.45;;
59786;SDS011;45672;51.612;5.536;2023-02-15T10:43:04;42.22;;;27.35;;
59786;SDS011;45672;51.612;5.536;2023-02-15T10:51:05;44.70;;;28.35;;
59786;SDS011;45672;51.612;5.536;2023-02-15T10:53:42;41.08;;;25.58;;
59786;SDS011;45672;51.612;5.536;2023-02-15T10:56:25;57.88;;;32.83;;
59786;SDS011;45672;51.612;5.536;2023-02-15T10:59:17;53.38;;;29.58;;
59786;SDS011;45672;51.612;5.536;2023-02-15T11:02:15;42.47;;;24.70;;
59786;SDS011;45672;51.612;5.536;2023-02-15T11:07:38;45.20;;;26.00;;
59786;SDS011;45672;51.612;5.536;2023-02-15T11:12:49;46.42;;;28.50;;
59786;SDS011;45672;51.612;5.536;2023-02-15T11:15:18;47.38;;;25.73;;
59786;SDS011;45672;51.612;5.536;2023-02-15T11:17:52;39.88;;;25.27;;
59786;SDS011;45672;51.612;5.536;2023-02-15T11:20:30;78.38;;;43.60;;
59786;SDS011;45672;51.612;5.536;2023-02-15T11:23:00;46.08;;;26.20;;
59786;SDS011;45672;51.612;5.536;2023-02-15T11:25:31;48.60;;;30.63;;
59786;SDS011;45672;51.612;5.536;2023-02-15T11:27:58;49.55;;;27.95;;
59786;SDS011;45672;51.612;5.536;2023-02-15T11:30:39;48.17;;;24.52;;
59786;SDS011;45672;51.612;5.536;2023-02-15T11:33:14;42.78;;;24.58;;
59786;SDS011;45672;51.612;5.536;2023-02-15T11:35:50;41.83;;;25.85;;
59786;SDS011;45672;51.612;5.536;2023-02-15T11:38:26;54.65;;;33.28;;
59786;SDS011;45672;51.612;5.536;2023-02-15T11:40:57;63.45;;;35.85;;
59786;SDS011;45672;51.612;5.536;2023-02-15T11:46:23;46.33;;;26.02;;
59786;SDS011;45672;51.612;5.536;2023-02-15T11:48:48;44.30;;;23.40;;
59786;SDS011;45672;51.612;5.536;2023-02-15T11:51:14;47.90;;;25.10;;
59786;SDS011;45672;51.612;5.536;2023-02-15T11:53:42;42.15;;;23.95;;
59786;SDS011;45672;51.612;5.536;2023-02-15T11:56:16;44.22;;;26.83;;
59786;SDS011;45672;51.612;5.536;2023-02-15T11:59:04;41.72;;;24.05;;
59786;SDS011;45672;51.612;5.536;2023-02-15T12:01:45;39.92;;;23.65;;
59786;SDS011;45672;51.612;5.536;2023-02-15T12:10:17;43.78;;;23.50;;
59786;SDS011;45672;51.612;5.536;2023-02-15T12:13:07;39.83;;;22.95;;
59786;SDS011;45672;51.612;5.536;2023-02-15T12:15:33;43.70;;;23.25;;
59786;SDS011;45672;51.612;5.536;2023-02-15T12:18:00;45.00;;;24.85;;
59786;SDS011;45672;51.612;5.536;2023-02-15T12:20:28;46.25;;;24.02;;
59786;SDS011;45672;51.612;5.536;2023-02-15T12:23:14;43.70;;;24.58;;
59786;SDS011;45672;51.612;5.536;2023-02-15T12:31:00;42.13;;;23.35;;
59786;SDS011;45672;51.612;5.536;2023-02-15T12:33:34;37.50;;;23.38;;
59786;SDS011;45672;51.612;5.536;2023-02-15T12:38:38;41.58;;;25.23;;
59786;SDS011;45672;51.612;5.536;2023-02-15T12:41:05;44.45;;;25.13;;
59786;SDS011;45672;51.612;5.536;2023-02-15T12:43:46;46.03;;;25.05;;
59786;SDS011;45672;51.612;5.536;2023-02-15T12:46:13;47.40;;;25.27;;
59786;SDS011;45672;51.612;5.536;2023-02-15T12:48:39;40.65;;;23.70;;
59786;SDS011;45672;51.612;5.536;2023-02-15T12:51:08;43.20;;;24.95;;
59786;SDS011;45672;51.612;5.536;2023-02-15T12:53:38;41.70;;;25.70;;
59786;SDS011;45672;51.612;5.536;2023-02-15T12:56:05;45.28;;;27.58;;
59786;SDS011;45672;51.612;5.536;2023-02-15T12:58:33;41.65;;;24.13;;
59786;SDS011;45672;51.612;5.536;2023-02-15T13:03:38;42.90;;;24.95;;
59786;SDS011;45672;51.612;5.536;2023-02-15T13:06:19;48.63;;;25.88;;
59786;SDS011;45672;51.612;5.536;2023-02-15T13:08:46;44.72;;;25.52;;
59786;SDS011;45672;51.612;5.536;2023-02-15T13:11:15;46.85;;;26.60;;
59786;SDS011;45672;51.612;5.536;2023-02-15T13:13:51;45.10;;;24.88;;
59786;SDS011;45672;51.612;5.536;2023-02-15T13:16:20;46.90;;;25.58;;
59786;SDS011;45672;51.612;5.536;2023-02-15T13:18:53;48.95;;;25.02;;
59786;SDS011;45672;51.612;5.536;2023-02-15T13:21:23;46.83;;;25.30;;
59786;SDS011;45672;51.612;5.536;2023-02-15T13:23:56;46.92;;;25.58;;
59786;SDS011;45672;51.612;5.536;2023-02-15T13:26:26;45.25;;;24.90;;
59786;SDS011;45672;51.612;5.536;2023-02-15T13:28:56;42.90;;;25.27;;
59786;SDS011;45672;51.612;5.536;2023-02-15T13:31:26;45.22;;;25.98;;
59786;SDS011;45672;51.612;5.536;2023-02-15T13:34:10;48.83;;;25.58;;
59786;SDS011;45672;51.612;5.536;2023-02-15T13:36:56;45.88;;;25.35;;
59786;SDS011;45672;51.612;5.536;2023-02-15T13:42:21;44.78;;;25.30;;
59786;SDS011;45672;51.612;5.536;2023-02-15T13:47:42;46.60;;;26.17;;
59786;SDS011;45672;51.612;5.536;2023-02-15T13:50:15;41.72;;;26.35;;
59786;SDS011;45672;51.612;5.536;2023-02-15T13:52:50;46.45;;;25.52;;
59786;SDS011;45672;51.612;5.536;2023-02-15T13:55:26;40.58;;;24.67;;
59786;SDS011;45672;51.612;5.536;2023-02-15T13:58:17;45.90;;;25.38;;
59786;SDS011;45672;51.612;5.536;2023-02-15T14:26:02;63.35;;;36.53;;
59786;SDS011;45672;51.612;5.536;2023-02-15T14:31:19;67.25;;;39.70;;
59786;SDS011;45672;51.612;5.536;2023-02-15T14:33:53;64.97;;;40.45;;
59786;SDS011;45672;51.612;5.536;2023-02-15T14:36:21;58.42;;;36.00;;
59786;SDS011;45672;51.612;5.536;2023-02-15T14:42:15;49.95;;;27.23;;
59786;SDS011;45672;51.612;5.536;2023-02-15T14:44:57;52.17;;;29.77;;
59786;SDS011;45672;51.612;5.536;2023-02-15T14:47:42;60.95;;;39.03;;
59786;SDS011;45672;51.612;5.536;2023-02-15T15:01:14;73.45;;;44.40;;
59786;SDS011;45672;51.612;5.536;2023-02-15T15:03:48;53.55;;;25.98;;
59786;SDS011;45672;51.612;5.536;2023-02-15T15:06:25;89.75;;;53.75;;
59786;SDS011;45672;51.612;5.536;2023-02-15T15:09:10;66.55;;;40.25;;
59786;SDS011;45672;51.612;5.536;2023-02-15T15:11:37;50.28;;;26.23;;
59786;SDS011;45672;51.612;5.536;2023-02-15T15:16:58;57.55;;;27.55;;
59786;SDS011;45672;51.612;5.536;2023-02-15T15:22:30;50.35;;;25.65;;
59786;SDS011;45672;51.612;5.536;2023-02-15T15:24:58;48.88;;;27.77;;
59786;SDS011;45672;51.612;5.536;2023-02-15T15:35:27;46.90;;;26.10;;
59786;SDS011;45672;51.612;5.536;2023-02-15T15:40:42;46.67;;;27.15;;
59786;SDS011;45672;51.612;5.536;2023-02-15T15:48:43;46.78;;;25.80;;
59786;SDS011;45672;51.612;5.536;2023-02-15T15:51:14;52.47;;;25.40;;
59786;SDS011;45672;51.612;5.536;2023-02-15T15:53:45;54.55;;;25.35;;
59786;SDS011;45672;51.612;5.536;2023-02-15T15:56:21;50.55;;;25.33;;
59786;SDS011;45672;51.612;5.536;2023-02-15T15:58:54;49.92;;;25.30;;
59786;SDS011;45672;51.612;5.536;2023-02-15T16:01:26;49.88;;;25.95;;
59786;SDS011;45672;51.612;5.536;2023-02-15T16:03:54;48.15;;;25.35;;
59786;SDS011;45672;51.612;5.536;2023-02-15T16:06:54;50.45;;;26.42;;
59786;SDS011;45672;51.612;5.536;2023-02-15T16:09:17;46.85;;;25.33;;
59786;SDS011;45672;51.612;5.536;2023-02-15T16:11:43;48.53;;;25.50;;
59786;SDS011;45672;51.612;5.536;2023-02-15T16:14:14;45.92;;;24.83;;
59786;SDS011;45672;51.612;5.536;2023-02-15T16:16:52;46.22;;;26.00;;
59786;SDS011;45672;51.612;5.536;2023-02-15T16:19:22;51.33;;;27.45;;
59786;SDS011;45672;51.612;5.536;2023-02-15T16:21:51;52.33;;;25.77;;
59786;SDS011;45672;51.612;5.536;2023-02-15T16:24:30;50.53;;;26.50;;
59786;SDS011;45672;51.612;5.536;2023-02-15T16:27:14;45.33;;;26.40;;
59786;SDS011;45672;51.612;5.536;2023-02-15T16:29:42;47.90;;;26.15;;
59786;SDS011;45672;51.612;5.536;2023-02-15T16:32:18;53.05;;;26.35;;
59786;SDS011;45672;51.612;5.536;2023-02-15T16:34:52;44.08;;;25.77;;
59786;SDS011;45672;51.612;5.536;2023-02-15T16:37:20;50.90;;;26.77;;
59786;SDS011;45672;51.612;5.536;2023-02-15T16:39:49;55.00;;;26.42;;
59786;SDS011;45672;51.612;5.536;2023-02-15T16:42:15;51.10;;;26.63;;
59786;SDS011;45672;51.612;5.536;2023-02-15T16:44:41;49.65;;;26.30;;
59786;SDS011;45672;51.612;5.536;2023-02-15T16:47:15;55.72;;;26.40;;
59786;SDS011;45672;51.612;5.536;2023-02-15T16:49:44;48.53;;;25.92;;
59786;SDS011;45672;51.612;5.536;2023-02-15T16:52:13;47.60;;;26.42;;
59786;SDS011;45672;51.612;5.536;2023-02-15T16:54:44;47.42;;;27.08;;
59786;SDS011;45672;51.612;5.536;2023-02-15T16:57:20;54.33;;;26.02;;
59786;SDS011;45672;51.612;5.536;2023-02-15T16:59:49;52.00;;;27.42;;
59786;SDS011;45672;51.612;5.536;2023-02-15T17:02:18;47.60;;;26.08;;
59786;SDS011;45672;51.612;5.536;2023-02-15T17:05:32;44.72;;;25.38;;
59786;SDS011;45672;51.612;5.536;2023-02-15T17:07:41;51.53;;;26.73;;
59786;SDS011;45672;51.612;5.536;2023-02-15T17:10:29;50.97;;;25.35;;
59786;SDS011;45672;51.612;5.536;2023-02-15T17:13:00;46.72;;;25.95;;
59786;SDS011;45672;51.612;5.536;2023-02-15T17:15:29;51.85;;;25.88;;
59786;SDS011;45672;51.612;5.536;2023-02-15T17:18:00;52.47;;;26.48;;
59786;SDS011;45672;51.612;5.536;2023-02-15T17:20:28;51.00;;;25.73;;
59786;SDS011;45672;51.612;5.536;2023-02-15T17:22:55;46.55;;;24.67;;
59786;SDS011;45672;51.612;5.536;2023-02-15T17:25:24;49.55;;;26.27;;
59786;SDS011;45672;51.612;5.536;2023-02-15T17:27:57;52.33;;;26.20;;
59786;SDS011;45672;51.612;5.536;2023-02-15T17:30:32;46.60;;;25.38;;
59786;SDS011;45672;51.612;5.536;2023-02-15T17:33:00;47.20;;;26.73;;
59786;SDS011;45672;51.612;5.536;2023-02-15T17:35:27;46.42;;;25.17;;
59786;SDS011;45672;51.612;5.536;2023-02-15T17:38:01;50.40;;;25.52;;
59786;SDS011;45672;51.612;5.536;2023-02-15T17:40:30;45.55;;;25.65;;
59786;SDS011;45672;51.612;5.536;2023-02-15T17:42:57;53.38;;;26.58;;
59786;SDS011;45672;51.612;5.536;2023-02-15T17:45:25;62.85;;;26.88;;
59786;SDS011;45672;51.612;5.536;2023-02-15T17:47:57;51.42;;;27.75;;
59786;SDS011;45672;51.612;5.536;2023-02-15T17:50:24;53.88;;;28.20;;
59786;SDS011;45672;51.612;5.536;2023-02-15T17:52:51;60.25;;;30.67;;
59786;SDS011;45672;51.612;5.536;2023-02-15T17:55:18;58.97;;;30.45;;
59786;SDS011;45672;51.612;5.536;2023-02-15T17:58:06;59.17;;;29.00;;
59786;SDS011;45672;51.612;5.536;2023-02-15T18:00:38;53.88;;;29.27;;
59786;SDS011;45672;51.612;5.536;2023-02-15T18:03:25;51.05;;;27.10;;
59786;SDS011;45672;51.612;5.536;2023-02-15T18:06:22;48.90;;;27.45;;
59786;SDS011;45672;51.612;5.536;2023-02-15T18:09:09;51.53;;;28.55;;
59786;SDS011;45672;51.612;5.536;2023-02-15T18:11:54;50.53;;;27.75;;